sensor_id;sensor_type;location;lat;lon;timestamp;P1;P2;P0
80396;PMS5003;69721;55.894;-3.052;2024-03-08T00:00:15;18;13;
80396;PMS5003;69721;55.894;-3.052;2024-03-08T00:02:40;17;13;
80396;PMS5003;69721;55.894;-3.052;2024-03-08T00:05:06;15;15;
80396;PMS5003;69721;55.894;-3.052;2024-03-08T00:07:30;22;17;
80396;PMS5003;69721;55.894;-3.052;2024-03-08T00:09:56;18;17;
80396;PMS5003;69721;55.894;-3.052;2024-03-08T00:12:22;13;7;
80396;PMS5003;69721;55.894;-3.052;2024-03-08T00:14:47;15;15;
80396;PMS5003;69721;55.894;-3.052;2024-03-08T00:17:12;22;21;
80396;PMS5003;69721;55.894;-3.052;2024-03-08T00:19:38;18;15;
80396;PMS5003;69721;55.894;-3.052;2024-03-08T00:22:03;14;11;
80396;PMS5003;69721;55.894;-3.052;2024-03-08T00:26:54;18;15;
80396;PMS5003;69721;55.894;-3.052;2024-03-08T00:29:20;18;13;
80396;PMS5003;69721;55.894;-3.052;2024-03-08T00:31:45;13;13;
80396;PMS5003;69721;55.894;-3.052;2024-03-08T00:34:11;18;12;
80396;PMS5003;69721;55.894;-3.052;2024-03-08T00:36:36;15;13;
80396;PMS5003;69721;55.894;-3.052;2024-03-08T00:39:02;21;16;
80396;PMS5003;69721;55.894;-3.052;2024-03-08T00:41:29;10;10;
80396;PMS5003;69721;55.894;-3.052;2024-03-08T00:43:52;18;13;
80396;PMS5003;69721;55.894;-3.052;2024-03-08T00:46:19;15;15;
80396;PMS5003;69721;55.894;-3.052;2024-03-08T00:48:44;13;13;
80396;PMS5003;69721;55.894;-3.052;2024-03-08T00:51:10;24;20;
80396;PMS5003;69721;55.894;-3.052;2024-03-08T00:53:36;22;18;
80396;PMS5003;69721;55.894;-3.052;2024-03-08T00:56:01;15;14;
80396;PMS5003;69721;55.894;-3.052;2024-03-08T00:58:26;20;17;
80396;PMS5003;69721;55.894;-3.052;2024-03-08T01:00:52;15;14;
80396;PMS5003;69721;55.894;-3.052;2024-03-08T01:03:18;21;21;
80396;PMS5003;69721;55.894;-3.052;2024-03-08T01:05:43;21;17;
80396;PMS5003;69721;55.894;-3.052;2024-03-08T01:08:09;18;15;
80396;PMS5003;69721;55.894;-3.052;2024-03-08T01:10:34;18;16;
80396;PMS5003;69721;55.894;-3.052;2024-03-08T01:13:00;20;18;
80396;PMS5003;69721;55.894;-3.052;2024-03-08T01:15:25;23;17;
80396;PMS5003;69721;55.894;-3.052;2024-03-08T01:17:50;18;14;
80396;PMS5003;69721;55.894;-3.052;2024-03-08T01:20:16;22;14;
80396;PMS5003;69721;55.894;-3.052;2024-03-08T01:22:42;27;19;
80396;PMS5003;69721;55.894;-3.052;2024-03-08T01:25:08;14;13;
80396;PMS5003;69721;55.894;-3.052;2024-03-08T01:27:34;15;14;
80396;PMS5003;69721;55.894;-3.052;2024-03-08T01:29:59;15;12;
80396;PMS5003;69721;55.894;-3.052;2024-03-08T01:32:24;16;14;
80396;PMS5003;69721;55.894;-3.052;2024-03-08T01:37:15;13;11;
80396;PMS5003;69721;55.894;-3.052;2024-03-08T01:39:40;12;10;
80396;PMS5003;69721;55.894;-3.052;2024-03-08T01:42:06;13;10;
80396;PMS5003;69721;55.894;-3.052;2024-03-08T01:44:31;11;10;
80396;PMS5003;69721;55.894;-3.052;2024-03-08T01:46:57;13;11;
80396;PMS5003;69721;55.894;-3.052;2024-03-08T01:49:22;8;8;
80396;PMS5003;69721;55.894;-3.052;2024-03-08T01:51:48;12;12;
80396;PMS5003;69721;55.894;-3.052;2024-03-08T01:54:14;14;14;
80396;PMS5003;69721;55.894;-3.052;2024-03-08T01:56:39;11;11;
80396;PMS5003;69721;55.894;-3.052;2024-03-08T01:59:04;15;13;
80396;PMS5003;69721;55.894;-3.052;2024-03-08T02:01:30;13;12;
80396;PMS5003;69721;55.894;-3.052;2024-03-08T02:03:56;9;9;
80396;PMS5003;69721;55.894;-3.052;2024-03-08T02:06:21;12;12;
80396;PMS5003;69721;55.894;-3.052;2024-03-08T02:08:47;7;7;
80396;PMS5003;69721;55.894;-3.052;2024-03-08T02:11:21;10;10;
80396;PMS5003;69721;55.894;-3.052;2024-03-08T02:13:47;17;14;
80396;PMS5003;69721;55.894;-3.052;2024-03-08T02:16:12;15;14;
80396;PMS5003;69721;55.894;-3.052;2024-03-08T02:18:38;9;8;
80396;PMS5003;69721;55.894;-3.052;2024-03-08T02:21:04;10;10;
80396;PMS5003;69721;55.894;-3.052;2024-03-08T02:23:29;11;9;
80396;PMS5003;69721;55.894;-3.052;2024-03-08T02:25:55;8;8;
80396;PMS5003;69721;55.894;-3.052;2024-03-08T02:28:28;5;5;
80396;PMS5003;69721;55.894;-3.052;2024-03-08T02:30:53;16;15;
80396;PMS5003;69721;55.894;-3.052;2024-03-08T02:33:18;12;12;
80396;PMS5003;69721;55.894;-3.052;2024-03-08T02:35:44;11;9;
80396;PMS5003;69721;55.894;-3.052;2024-03-08T02:38:09;11;11;
80396;PMS5003;69721;55.894;-3.052;2024-03-08T02:40:35;13;12;
80396;PMS5003;69721;55.894;-3.052;2024-03-08T02:43:00;8;8;
80396;PMS5003;69721;55.894;-3.052;2024-03-08T02:47:51;20;14;
80396;PMS5003;69721;55.894;-3.052;2024-03-08T02:50:16;11;11;
80396;PMS5003;69721;55.894;-3.052;2024-03-08T02:52:42;11;10;
80396;PMS5003;69721;55.894;-3.052;2024-03-08T02:55:08;11;7;
80396;PMS5003;69721;55.894;-3.052;2024-03-08T02:57:33;13;10;
80396;PMS5003;69721;55.894;-3.052;2024-03-08T02:59:59;12;12;
80396;PMS5003;69721;55.894;-3.052;2024-03-08T03:02:24;14;10;
80396;PMS5003;69721;55.894;-3.052;2024-03-08T03:04:49;13;11;
80396;PMS5003;69721;55.894;-3.052;2024-03-08T03:07:15;17;16;
80396;PMS5003;69721;55.894;-3.052;2024-03-08T03:09:41;10;8;
80396;PMS5003;69721;55.894;-3.052;2024-03-08T03:12:07;12;10;
80396;PMS5003;69721;55.894;-3.052;2024-03-08T03:14:32;12;8;
80396;PMS5003;69721;55.894;-3.052;2024-03-08T03:16:58;17;11;
80396;PMS5003;69721;55.894;-3.052;2024-03-08T03:19:23;16;14;
80396;PMS5003;69721;55.894;-3.052;2024-03-08T03:21:49;9;9;
80396;PMS5003;69721;55.894;-3.052;2024-03-08T03:24:15;10;8;
80396;PMS5003;69721;55.894;-3.052;2024-03-08T03:26:40;16;10;
80396;PMS5003;69721;55.894;-3.052;2024-03-08T03:29:06;11;10;
80396;PMS5003;69721;55.894;-3.052;2024-03-08T03:31:32;14;10;
80396;PMS5003;69721;55.894;-3.052;2024-03-08T03:33:57;18;13;
80396;PMS5003;69721;55.894;-3.052;2024-03-08T03:36:22;14;10;
80396;PMS5003;69721;55.894;-3.052;2024-03-08T03:38:48;14;11;
80396;PMS5003;69721;55.894;-3.052;2024-03-08T03:41:13;11;11;
80396;PMS5003;69721;55.894;-3.052;2024-03-08T03:43:39;15;12;
80396;PMS5003;69721;55.894;-3.052;2024-03-08T03:46:05;19;13;
80396;PMS5003;69721;55.894;-3.052;2024-03-08T03:48:29;17;12;
80396;PMS5003;69721;55.894;-3.052;2024-03-08T03:50:55;14;12;
80396;PMS5003;69721;55.894;-3.052;2024-03-08T03:58:12;13;11;
80396;PMS5003;69721;55.894;-3.052;2024-03-08T04:00:37;17;12;
80396;PMS5003;69721;55.894;-3.052;2024-03-08T04:03:03;16;13;
80396;PMS5003;69721;55.894;-3.052;2024-03-08T04:05:28;13;13;
80396;PMS5003;69721;55.894;-3.052;2024-03-08T04:07:54;15;14;
80396;PMS5003;69721;55.894;-3.052;2024-03-08T04:10:20;11;10;
80396;PMS5003;69721;55.894;-3.052;2024-03-08T04:12:45;7;7;
80396;PMS5003;69721;55.894;-3.052;2024-03-08T04:15:10;10;8;
80396;PMS5003;69721;55.894;-3.052;2024-03-08T04:17:36;12;8;
80396;PMS5003;69721;55.894;-3.052;2024-03-08T04:20:01;11;9;
80396;PMS5003;69721;55.894;-3.052;2024-03-08T04:22:27;9;9;
80396;PMS5003;69721;55.894;-3.052;2024-03-08T04:24:52;10;10;
80396;PMS5003;69721;55.894;-3.052;2024-03-08T04:27:18;13;11;
80396;PMS5003;69721;55.894;-3.052;2024-03-08T04:29:43;13;12;
80396;PMS5003;69721;55.894;-3.052;2024-03-08T04:32:09;12;9;
80396;PMS5003;69721;55.894;-3.052;2024-03-08T04:34:34;16;9;
80396;PMS5003;69721;55.894;-3.052;2024-03-08T04:37:00;13;12;
80396;PMS5003;69721;55.894;-3.052;2024-03-08T04:39:26;15;12;
80396;PMS5003;69721;55.894;-3.052;2024-03-08T04:41:51;10;10;
80396;PMS5003;69721;55.894;-3.052;2024-03-08T04:44:18;13;9;
80396;PMS5003;69721;55.894;-3.052;2024-03-08T04:46:44;13;10;
80396;PMS5003;69721;55.894;-3.052;2024-03-08T04:49:11;16;10;
80396;PMS5003;69721;55.894;-3.052;2024-03-08T04:51:36;13;10;
80396;PMS5003;69721;55.894;-3.052;2024-03-08T04:54:04;10;8;
80396;PMS5003;69721;55.894;-3.052;2024-03-08T04:56:29;9;8;
80396;PMS5003;69721;55.894;-3.052;2024-03-08T04:58:55;15;11;
80396;PMS5003;69721;55.894;-3.052;2024-03-08T05:01:20;11;11;
80396;PMS5003;69721;55.894;-3.052;2024-03-08T05:08:37;10;10;
80396;PMS5003;69721;55.894;-3.052;2024-03-08T05:11:02;11;10;
80396;PMS5003;69721;55.894;-3.052;2024-03-08T05:13:28;15;10;
80396;PMS5003;69721;55.894;-3.052;2024-03-08T05:15:53;12;12;
80396;PMS5003;69721;55.894;-3.052;2024-03-08T05:18:19;15;13;
80396;PMS5003;69721;55.894;-3.052;2024-03-08T05:20:45;20;17;
80396;PMS5003;69721;55.894;-3.052;2024-03-08T05:23:10;10;9;
80396;PMS5003;69721;55.894;-3.052;2024-03-08T05:25:36;13;13;
80396;PMS5003;69721;55.894;-3.052;2024-03-08T05:28:02;14;14;
80396;PMS5003;69721;55.894;-3.052;2024-03-08T05:30:27;10;9;
80396;PMS5003;69721;55.894;-3.052;2024-03-08T05:32:53;12;12;
80396;PMS5003;69721;55.894;-3.052;2024-03-08T05:35:18;10;10;
80396;PMS5003;69721;55.894;-3.052;2024-03-08T05:37:44;17;15;
80396;PMS5003;69721;55.894;-3.052;2024-03-08T05:40:10;20;17;
80396;PMS5003;69721;55.894;-3.052;2024-03-08T05:42:35;15;12;
80396;PMS5003;69721;55.894;-3.052;2024-03-08T05:45:01;20;17;
80396;PMS5003;69721;55.894;-3.052;2024-03-08T05:47:27;14;14;
80396;PMS5003;69721;55.894;-3.052;2024-03-08T05:49:52;11;9;
80396;PMS5003;69721;55.894;-3.052;2024-03-08T05:52:18;11;8;
80396;PMS5003;69721;55.894;-3.052;2024-03-08T05:54:44;10;6;
80396;PMS5003;69721;55.894;-3.052;2024-03-08T05:57:13;4;4;
80396;PMS5003;69721;55.894;-3.052;2024-03-08T05:59:38;8;8;
80396;PMS5003;69721;55.894;-3.052;2024-03-08T06:02:03;9;9;
80396;PMS5003;69721;55.894;-3.052;2024-03-08T06:04:29;13;12;
80396;PMS5003;69721;55.894;-3.052;2024-03-08T06:06:55;9;8;
80396;PMS5003;69721;55.894;-3.052;2024-03-08T06:09:20;9;6;
80396;PMS5003;69721;55.894;-3.052;2024-03-08T06:11:46;12;7;
80396;PMS5003;69721;55.894;-3.052;2024-03-08T06:16:37;8;7;
80396;PMS5003;69721;55.894;-3.052;2024-03-08T06:19:02;8;7;
80396;PMS5003;69721;55.894;-3.052;2024-03-08T06:21:28;7;7;
80396;PMS5003;69721;55.894;-3.052;2024-03-08T06:23:53;12;9;
80396;PMS5003;69721;55.894;-3.052;2024-03-08T06:26:19;11;7;
80396;PMS5003;69721;55.894;-3.052;2024-03-08T06:28:44;10;10;
80396;PMS5003;69721;55.894;-3.052;2024-03-08T06:31:10;14;12;
80396;PMS5003;69721;55.894;-3.052;2024-03-08T06:33:35;11;11;
80396;PMS5003;69721;55.894;-3.052;2024-03-08T06:36:01;20;18;
80396;PMS5003;69721;55.894;-3.052;2024-03-08T06:38:26;14;14;
80396;PMS5003;69721;55.894;-3.052;2024-03-08T06:40:52;14;11;
80396;PMS5003;69721;55.894;-3.052;2024-03-08T06:43:18;21;14;
80396;PMS5003;69721;55.894;-3.052;2024-03-08T06:45:43;15;13;
80396;PMS5003;69721;55.894;-3.052;2024-03-08T06:48:08;13;11;
80396;PMS5003;69721;55.894;-3.052;2024-03-08T06:50:33;15;12;
80396;PMS5003;69721;55.894;-3.052;2024-03-08T06:52:59;12;11;
80396;PMS5003;69721;55.894;-3.052;2024-03-08T06:55:24;15;13;
80396;PMS5003;69721;55.894;-3.052;2024-03-08T06:57:49;12;10;
80396;PMS5003;69721;55.894;-3.052;2024-03-08T07:00:15;12;9;
80396;PMS5003;69721;55.894;-3.052;2024-03-08T07:02:41;15;12;
80396;PMS5003;69721;55.894;-3.052;2024-03-08T07:05:07;12;10;
80396;PMS5003;69721;55.894;-3.052;2024-03-08T07:07:32;13;11;
80396;PMS5003;69721;55.894;-3.052;2024-03-08T07:09:58;6;6;
80396;PMS5003;69721;55.894;-3.052;2024-03-08T07:12:24;13;13;
80396;PMS5003;69721;55.894;-3.052;2024-03-08T07:14:49;10;10;
80396;PMS5003;69721;55.894;-3.052;2024-03-08T07:17:14;13;11;
80396;PMS5003;69721;55.894;-3.052;2024-03-08T07:19:40;13;11;
80396;PMS5003;69721;55.894;-3.052;2024-03-08T07:22:05;11;11;
80396;PMS5003;69721;55.894;-3.052;2024-03-08T07:26:56;12;9;
80396;PMS5003;69721;55.894;-3.052;2024-03-08T07:29:22;11;8;
80396;PMS5003;69721;55.894;-3.052;2024-03-08T07:31:47;13;12;
80396;PMS5003;69721;55.894;-3.052;2024-03-08T07:34:13;16;15;
80396;PMS5003;69721;55.894;-3.052;2024-03-08T07:36:39;10;10;
80396;PMS5003;69721;55.894;-3.052;2024-03-08T07:39:05;7;7;
80396;PMS5003;69721;55.894;-3.052;2024-03-08T07:41:30;14;12;
80396;PMS5003;69721;55.894;-3.052;2024-03-08T07:43:56;12;8;
80396;PMS5003;69721;55.894;-3.052;2024-03-08T07:46:21;14;9;
80396;PMS5003;69721;55.894;-3.052;2024-03-08T07:48:47;12;12;
80396;PMS5003;69721;55.894;-3.052;2024-03-08T07:51:13;14;12;
80396;PMS5003;69721;55.894;-3.052;2024-03-08T07:53:38;13;13;
80396;PMS5003;69721;55.894;-3.052;2024-03-08T07:56:04;17;13;
80396;PMS5003;69721;55.894;-3.052;2024-03-08T07:58:29;11;10;
80396;PMS5003;69721;55.894;-3.052;2024-03-08T08:00:55;16;14;
80396;PMS5003;69721;55.894;-3.052;2024-03-08T08:03:20;12;12;
80396;PMS5003;69721;55.894;-3.052;2024-03-08T08:05:46;12;11;
80396;PMS5003;69721;55.894;-3.052;2024-03-08T08:08:11;14;13;
80396;PMS5003;69721;55.894;-3.052;2024-03-08T08:10:37;13;11;
80396;PMS5003;69721;55.894;-3.052;2024-03-08T08:13:02;15;12;
80396;PMS5003;69721;55.894;-3.052;2024-03-08T08:15:28;20;14;
80396;PMS5003;69721;55.894;-3.052;2024-03-08T08:17:54;21;17;
80396;PMS5003;69721;55.894;-3.052;2024-03-08T08:20:20;12;12;
80396;PMS5003;69721;55.894;-3.052;2024-03-08T08:22:45;15;14;
80396;PMS5003;69721;55.894;-3.052;2024-03-08T08:25:10;13;9;
80396;PMS5003;69721;55.894;-3.052;2024-03-08T08:27:36;10;10;
80396;PMS5003;69721;55.894;-3.052;2024-03-08T08:30:02;14;12;
80396;PMS5003;69721;55.894;-3.052;2024-03-08T08:32:27;17;13;
80396;PMS5003;69721;55.894;-3.052;2024-03-08T08:34:53;15;10;
80396;PMS5003;69721;55.894;-3.052;2024-03-08T08:37:19;16;14;
80396;PMS5003;69721;55.894;-3.052;2024-03-08T08:39:44;17;12;
80396;PMS5003;69721;55.894;-3.052;2024-03-08T08:42:10;17;15;
80396;PMS5003;69721;55.894;-3.052;2024-03-08T08:47:00;15;13;
80396;PMS5003;69721;55.894;-3.052;2024-03-08T08:49:26;21;14;
80396;PMS5003;69721;55.894;-3.052;2024-03-08T08:51:52;16;12;
80396;PMS5003;69721;55.894;-3.052;2024-03-08T08:54:17;16;12;
80396;PMS5003;69721;55.894;-3.052;2024-03-08T08:56:43;13;12;
80396;PMS5003;69721;55.894;-3.052;2024-03-08T08:59:08;17;14;
80396;PMS5003;69721;55.894;-3.052;2024-03-08T09:01:33;6;5;
80396;PMS5003;69721;55.894;-3.052;2024-03-08T09:03:59;12;11;
80396;PMS5003;69721;55.894;-3.052;2024-03-08T09:06:24;17;15;
80396;PMS5003;69721;55.894;-3.052;2024-03-08T09:08:49;22;20;
80396;PMS5003;69721;55.894;-3.052;2024-03-08T09:11:15;18;15;
80396;PMS5003;69721;55.894;-3.052;2024-03-08T09:13:40;11;11;
80396;PMS5003;69721;55.894;-3.052;2024-03-08T09:16:06;16;16;
80396;PMS5003;69721;55.894;-3.052;2024-03-08T09:18:31;23;19;
80396;PMS5003;69721;55.894;-3.052;2024-03-08T09:21:00;15;14;
80396;PMS5003;69721;55.894;-3.052;2024-03-08T09:23:22;24;19;
80396;PMS5003;69721;55.894;-3.052;2024-03-08T09:25:48;13;13;
80396;PMS5003;69721;55.894;-3.052;2024-03-08T09:28:13;20;14;
80396;PMS5003;69721;55.894;-3.052;2024-03-08T09:30:39;19;15;
80396;PMS5003;69721;55.894;-3.052;2024-03-08T09:33:04;15;13;
80396;PMS5003;69721;55.894;-3.052;2024-03-08T09:35:30;18;15;
80396;PMS5003;69721;55.894;-3.052;2024-03-08T09:37:56;20;17;
80396;PMS5003;69721;55.894;-3.052;2024-03-08T09:40:21;16;14;
80396;PMS5003;69721;55.894;-3.052;2024-03-08T09:42:48;18;13;
80396;PMS5003;69721;55.894;-3.052;2024-03-08T09:45:11;17;17;
80396;PMS5003;69721;55.894;-3.052;2024-03-08T09:47:37;16;15;
80396;PMS5003;69721;55.894;-3.052;2024-03-08T09:50:03;16;13;
80396;PMS5003;69721;55.894;-3.052;2024-03-08T09:52:29;19;15;
80396;PMS5003;69721;55.894;-3.052;2024-03-08T09:57:19;18;16;
80396;PMS5003;69721;55.894;-3.052;2024-03-08T09:59:49;8;8;
80396;PMS5003;69721;55.894;-3.052;2024-03-08T10:02:13;22;22;
80396;PMS5003;69721;55.894;-3.052;2024-03-08T10:04:37;27;18;
80396;PMS5003;69721;55.894;-3.052;2024-03-08T10:07:02;16;14;
80396;PMS5003;69721;55.894;-3.052;2024-03-08T10:09:28;22;20;
80396;PMS5003;69721;55.894;-3.052;2024-03-08T10:11:53;26;20;
80396;PMS5003;69721;55.894;-3.052;2024-03-08T10:14:19;16;16;
80396;PMS5003;69721;55.894;-3.052;2024-03-08T10:16:45;19;16;
80396;PMS5003;69721;55.894;-3.052;2024-03-08T10:19:10;24;19;
80396;PMS5003;69721;55.894;-3.052;2024-03-08T10:21:35;19;16;
80396;PMS5003;69721;55.894;-3.052;2024-03-08T10:24:02;23;18;
80396;PMS5003;69721;55.894;-3.052;2024-03-08T10:26:26;26;15;
80396;PMS5003;69721;55.894;-3.052;2024-03-08T10:28:52;24;19;
80396;PMS5003;69721;55.894;-3.052;2024-03-08T10:31:33;5;5;
80396;PMS5003;69721;55.894;-3.052;2024-03-08T10:33:57;24;19;
80396;PMS5003;69721;55.894;-3.052;2024-03-08T10:36:24;27;24;
80396;PMS5003;69721;55.894;-3.052;2024-03-08T10:38:51;26;21;
80396;PMS5003;69721;55.894;-3.052;2024-03-08T10:41:16;27;23;
80396;PMS5003;69721;55.894;-3.052;2024-03-08T10:46:15;28;20;
80396;PMS5003;69721;55.894;-3.052;2024-03-08T10:48:41;33;26;
80396;PMS5003;69721;55.894;-3.052;2024-03-08T10:51:04;34;29;
80396;PMS5003;69721;55.894;-3.052;2024-03-08T10:53:30;25;23;
80396;PMS5003;69721;55.894;-3.052;2024-03-08T10:55:56;31;24;
80396;PMS5003;69721;55.894;-3.052;2024-03-08T10:58:22;39;31;
80396;PMS5003;69721;55.894;-3.052;2024-03-08T11:00:47;28;23;
80396;PMS5003;69721;55.894;-3.052;2024-03-08T11:05:39;25;19;
80396;PMS5003;69721;55.894;-3.052;2024-03-08T11:08:05;19;19;
80396;PMS5003;69721;55.894;-3.052;2024-03-08T11:10:29;27;23;
80396;PMS5003;69721;55.894;-3.052;2024-03-08T11:12:56;32;26;
80396;PMS5003;69721;55.894;-3.052;2024-03-08T11:15:21;28;24;
80396;PMS5003;69721;55.894;-3.052;2024-03-08T11:17:48;24;24;
80396;PMS5003;69721;55.894;-3.052;2024-03-08T11:20:13;35;22;
80396;PMS5003;69721;55.894;-3.052;2024-03-08T11:22:38;28;25;
80396;PMS5003;69721;55.894;-3.052;2024-03-08T11:25:04;37;27;
80396;PMS5003;69721;55.894;-3.052;2024-03-08T11:27:28;32;26;
80396;PMS5003;69721;55.894;-3.052;2024-03-08T11:32:19;25;23;
80396;PMS5003;69721;55.894;-3.052;2024-03-08T11:34:46;34;27;
80396;PMS5003;69721;55.894;-3.052;2024-03-08T11:37:38;23;17;
80396;PMS5003;69721;55.894;-3.052;2024-03-08T11:40:11;35;32;
80396;PMS5003;69721;55.894;-3.052;2024-03-08T11:42:29;40;33;
80396;PMS5003;69721;55.894;-3.052;2024-03-08T11:44:54;37;28;
80396;PMS5003;69721;55.894;-3.052;2024-03-08T11:47:20;32;29;
80396;PMS5003;69721;55.894;-3.052;2024-03-08T11:49:46;35;31;
80396;PMS5003;69721;55.894;-3.052;2024-03-08T11:52:11;28;27;
80396;PMS5003;69721;55.894;-3.052;2024-03-08T11:54:37;39;29;
80396;PMS5003;69721;55.894;-3.052;2024-03-08T11:57:02;35;28;
80396;PMS5003;69721;55.894;-3.052;2024-03-08T11:59:28;39;34;
80396;PMS5003;69721;55.894;-3.052;2024-03-08T12:01:59;34;27;
80396;PMS5003;69721;55.894;-3.052;2024-03-08T12:04:19;39;32;
80396;PMS5003;69721;55.894;-3.052;2024-03-08T12:06:44;40;36;
80396;PMS5003;69721;55.894;-3.052;2024-03-08T12:09:10;43;37;
80396;PMS5003;69721;55.894;-3.052;2024-03-08T12:11:35;33;28;
80396;PMS5003;69721;55.894;-3.052;2024-03-08T12:16:26;46;34;
80396;PMS5003;69721;55.894;-3.052;2024-03-08T12:18:52;42;34;
80396;PMS5003;69721;55.894;-3.052;2024-03-08T12:21:17;46;36;
80396;PMS5003;69721;55.894;-3.052;2024-03-08T12:23:43;34;25;
80396;PMS5003;69721;55.894;-3.052;2024-03-08T12:26:09;33;32;
80396;PMS5003;69721;55.894;-3.052;2024-03-08T12:28:33;46;39;
80396;PMS5003;69721;55.894;-3.052;2024-03-08T12:30:58;45;38;
80396;PMS5003;69721;55.894;-3.052;2024-03-08T12:33:24;43;33;
80396;PMS5003;69721;55.894;-3.052;2024-03-08T12:35:51;42;35;
80396;PMS5003;69721;55.894;-3.052;2024-03-08T12:38:15;46;37;
80396;PMS5003;69721;55.894;-3.052;2024-03-08T12:40:41;41;35;
80396;PMS5003;69721;55.894;-3.052;2024-03-08T12:43:06;44;38;
80396;PMS5003;69721;55.894;-3.052;2024-03-08T12:45:31;44;37;
80396;PMS5003;69721;55.894;-3.052;2024-03-08T12:47:57;48;39;
80396;PMS5003;69721;55.894;-3.052;2024-03-08T12:50:22;48;44;
80396;PMS5003;69721;55.894;-3.052;2024-03-08T12:52:47;38;36;
80396;PMS5003;69721;55.894;-3.052;2024-03-08T12:55:13;41;34;
80396;PMS5003;69721;55.894;-3.052;2024-03-08T12:57:38;40;38;
80396;PMS5003;69721;55.894;-3.052;2024-03-08T13:00:05;41;35;
80396;PMS5003;69721;55.894;-3.052;2024-03-08T13:02:30;46;40;
80396;PMS5003;69721;55.894;-3.052;2024-03-08T13:04:55;42;37;
80396;PMS5003;69721;55.894;-3.052;2024-03-08T13:07:20;43;40;
80396;PMS5003;69721;55.894;-3.052;2024-03-08T13:09:47;54;41;
80396;PMS5003;69721;55.894;-3.052;2024-03-08T13:12:12;51;46;
80396;PMS5003;69721;55.894;-3.052;2024-03-08T13:14:50;36;36;
80396;PMS5003;69721;55.894;-3.052;2024-03-08T13:17:16;47;43;
80396;PMS5003;69721;55.894;-3.052;2024-03-08T13:19:41;52;43;
80396;PMS5003;69721;55.894;-3.052;2024-03-08T13:22:07;48;36;
80396;PMS5003;69721;55.894;-3.052;2024-03-08T13:26:59;48;38;
80396;PMS5003;69721;55.894;-3.052;2024-03-08T13:29:24;44;40;
80396;PMS5003;69721;55.894;-3.052;2024-03-08T13:31:50;51;43;
80396;PMS5003;69721;55.894;-3.052;2024-03-08T13:34:15;50;40;
80396;PMS5003;69721;55.894;-3.052;2024-03-08T13:36:41;37;33;
80396;PMS5003;69721;55.894;-3.052;2024-03-08T13:39:06;44;39;
80396;PMS5003;69721;55.894;-3.052;2024-03-08T13:41:32;48;42;
80396;PMS5003;69721;55.894;-3.052;2024-03-08T13:43:57;41;34;
80396;PMS5003;69721;55.894;-3.052;2024-03-08T13:46:23;55;40;
80396;PMS5003;69721;55.894;-3.052;2024-03-08T13:48:48;41;39;
80396;PMS5003;69721;55.894;-3.052;2024-03-08T13:51:14;37;35;
80396;PMS5003;69721;55.894;-3.052;2024-03-08T13:53:40;38;32;
80396;PMS5003;69721;55.894;-3.052;2024-03-08T13:56:06;51;46;
80396;PMS5003;69721;55.894;-3.052;2024-03-08T13:58:32;56;45;
80396;PMS5003;69721;55.894;-3.052;2024-03-08T14:00:57;53;47;
80396;PMS5003;69721;55.894;-3.052;2024-03-08T14:03:23;59;45;
80396;PMS5003;69721;55.894;-3.052;2024-03-08T14:05:49;46;41;
80396;PMS5003;69721;55.894;-3.052;2024-03-08T14:08:14;62;53;
80396;PMS5003;69721;55.894;-3.052;2024-03-08T14:10:39;65;51;
80396;PMS5003;69721;55.894;-3.052;2024-03-08T14:13:04;55;46;
80396;PMS5003;69721;55.894;-3.052;2024-03-08T14:15:29;44;43;
80396;PMS5003;69721;55.894;-3.052;2024-03-08T14:17:55;51;42;
80396;PMS5003;69721;55.894;-3.052;2024-03-08T14:20:19;45;40;
80396;PMS5003;69721;55.894;-3.052;2024-03-08T14:22:45;56;48;
80396;PMS5003;69721;55.894;-3.052;2024-03-08T14:25:10;50;45;
80396;PMS5003;69721;55.894;-3.052;2024-03-08T14:27:35;51;41;
80396;PMS5003;69721;55.894;-3.052;2024-03-08T14:30:01;54;45;
80396;PMS5003;69721;55.894;-3.052;2024-03-08T14:32:26;62;49;
80396;PMS5003;69721;55.894;-3.052;2024-03-08T14:37:18;55;40;
80396;PMS5003;69721;55.894;-3.052;2024-03-08T14:39:43;41;38;
80396;PMS5003;69721;55.894;-3.052;2024-03-08T14:42:09;50;43;
80396;PMS5003;69721;55.894;-3.052;2024-03-08T14:44:34;58;44;
80396;PMS5003;69721;55.894;-3.052;2024-03-08T14:46:59;52;42;
80396;PMS5003;69721;55.894;-3.052;2024-03-08T14:49:24;45;41;
80396;PMS5003;69721;55.894;-3.052;2024-03-08T14:51:50;46;40;
80396;PMS5003;69721;55.894;-3.052;2024-03-08T14:54:42;41;38;
80396;PMS5003;69721;55.894;-3.052;2024-03-08T14:57:08;51;39;
80396;PMS5003;69721;55.894;-3.052;2024-03-08T14:59:33;53;39;
80396;PMS5003;69721;55.894;-3.052;2024-03-08T15:01:59;48;41;
80396;PMS5003;69721;55.894;-3.052;2024-03-08T15:04:24;36;32;
80396;PMS5003;69721;55.894;-3.052;2024-03-08T15:06:51;54;40;
80396;PMS5003;69721;55.894;-3.052;2024-03-08T15:09:17;47;41;
80396;PMS5003;69721;55.894;-3.052;2024-03-08T15:11:47;46;40;
80396;PMS5003;69721;55.894;-3.052;2024-03-08T15:14:08;46;33;
80396;PMS5003;69721;55.894;-3.052;2024-03-08T15:16:33;50;39;
80396;PMS5003;69721;55.894;-3.052;2024-03-08T15:18:59;44;38;
80396;PMS5003;69721;55.894;-3.052;2024-03-08T15:21:25;43;37;
80396;PMS5003;69721;55.894;-3.052;2024-03-08T15:23:50;47;38;
80396;PMS5003;69721;55.894;-3.052;2024-03-08T15:26:16;50;42;
80396;PMS5003;69721;55.894;-3.052;2024-03-08T15:28:45;52;41;
80396;PMS5003;69721;55.894;-3.052;2024-03-08T15:31:11;50;37;
80396;PMS5003;69721;55.894;-3.052;2024-03-08T15:33:36;46;36;
80396;PMS5003;69721;55.894;-3.052;2024-03-08T15:36:01;47;45;
80396;PMS5003;69721;55.894;-3.052;2024-03-08T15:38:26;49;35;
80396;PMS5003;69721;55.894;-3.052;2024-03-08T15:40:52;49;36;
80396;PMS5003;69721;55.894;-3.052;2024-03-08T15:43:18;43;36;
80396;PMS5003;69721;55.894;-3.052;2024-03-08T15:48:09;44;33;
80396;PMS5003;69721;55.894;-3.052;2024-03-08T15:50:35;49;36;
80396;PMS5003;69721;55.894;-3.052;2024-03-08T15:53:00;42;32;
80396;PMS5003;69721;55.894;-3.052;2024-03-08T15:55:26;41;33;
80396;PMS5003;69721;55.894;-3.052;2024-03-08T15:57:52;45;40;
80396;PMS5003;69721;55.894;-3.052;2024-03-08T16:00:18;42;40;
80396;PMS5003;69721;55.894;-3.052;2024-03-08T16:02:43;45;34;
80396;PMS5003;69721;55.894;-3.052;2024-03-08T16:05:09;40;37;
80396;PMS5003;69721;55.894;-3.052;2024-03-08T16:07:35;39;34;
80396;PMS5003;69721;55.894;-3.052;2024-03-08T16:10:00;53;41;
80396;PMS5003;69721;55.894;-3.052;2024-03-08T16:12:26;42;33;
80396;PMS5003;69721;55.894;-3.052;2024-03-08T16:14:51;38;33;
80396;PMS5003;69721;55.894;-3.052;2024-03-08T16:17:16;54;42;
80396;PMS5003;69721;55.894;-3.052;2024-03-08T16:19:42;54;42;
80396;PMS5003;69721;55.894;-3.052;2024-03-08T16:22:08;49;44;
80396;PMS5003;69721;55.894;-3.052;2024-03-08T16:24:33;45;39;
80396;PMS5003;69721;55.894;-3.052;2024-03-08T16:26:58;50;40;
80396;PMS5003;69721;55.894;-3.052;2024-03-08T16:29:24;45;39;
80396;PMS5003;69721;55.894;-3.052;2024-03-08T16:31:50;44;40;
80396;PMS5003;69721;55.894;-3.052;2024-03-08T16:34:15;47;39;
80396;PMS5003;69721;55.894;-3.052;2024-03-08T16:36:41;50;41;